Time;durP1;ratioP1;P1;durP2;ratioP2;P2;SDS_P1;SDS_P2;PMS_P1;PMS_P2;Temp;Humidity;BMP_temperature;BMP_pressure;BME280_temperature;BME280_humidity;BME280_pressure;Samples;Min_cycle;Max_cycle;Signal;HPM_P1;HPM_P2
2021/11/28 00:00:47;;;;;;;12.57;7.67;;;;;;;-2.18;100.00;94197.22;5008352;28;20476;-72
2021/11/28 00:03:16;;;;;;;9.90;4.30;;;;;;;-2.25;100.00;94189.22;5026797;28;20096;-74
2021/11/28 00:05:44;;;;;;;8.17;3.43;;;;;;;-2.29;100.00;94184.47;5023484;28;20441;-74
2021/11/28 00:11:20;;;;;;;7.70;3.67;;;;;;;-2.33;100.00;94181.34;5028221;28;20570;-74
2021/11/28 00:16:11;;;;;;;8.47;4.10;;;;;;;-2.28;100.00;94179.22;5038073;28;21218;-73
2021/11/28 00:18:37;;;;;;;14.80;5.23;;;;;;;-2.29;100.00;94180.13;5017707;28;20021;-74
2021/11/28 00:21:03;;;;;;;11.07;5.23;;;;;;;-2.30;100.00;94186.25;5037734;28;20442;-73
2021/11/28 00:23:29;;;;;;;10.33;5.43;;;;;;;-2.27;100.00;94177.44;5037936;28;20120;-74
2021/11/28 00:25:55;;;;;;;12.87;5.90;;;;;;;-2.22;100.00;94177.84;5036877;28;20860;-75
2021/11/28 00:28:22;;;;;;;7.73;3.30;;;;;;;-2.19;100.00;94175.00;5030470;28;20071;-73
2021/11/28 00:30:48;;;;;;;10.23;3.93;;;;;;;-2.15;100.00;94171.22;5030231;28;20452;-73
2021/11/28 00:33:14;;;;;;;11.47;5.20;;;;;;;-2.14;100.00;94178.00;5021626;28;20899;-74
2021/11/28 00:35:42;;;;;;;6.60;3.37;;;;;;;-2.02;100.00;94170.97;5032952;28;21300;-75
2021/11/28 00:38:07;;;;;;;9.33;3.33;;;;;;;-2.03;100.00;94169.34;5035833;28;20459;-74
2021/11/28 00:40:33;;;;;;;8.50;4.37;;;;;;;-1.97;100.00;94173.97;5035289;28;20607;-75
2021/11/28 00:42:59;;;;;;;6.40;3.30;;;;;;;-1.97;100.00;94173.97;5025997;28;20394;-73
2021/11/28 00:45:25;;;;;;;8.00;3.73;;;;;;;-1.96;100.00;94173.00;5032336;28;20033;-73
2021/11/28 00:47:51;;;;;;;8.43;3.90;;;;;;;-1.95;100.00;94172.88;5031903;28;20100;-74
2021/11/28 00:50:36;;;;;;;6.57;3.00;;;;;;;-1.93;100.00;94165.03;5035678;28;20553;-73
2021/11/28 00:53:02;;;;;;;6.40;2.93;;;;;;;-1.96;100.00;94158.38;5040582;28;20483;-73
2021/11/28 00:55:28;;;;;;;5.87;3.00;;;;;;;-1.96;100.00;94157.56;5016471;28;20595;-73
2021/11/28 00:57:54;;;;;;;7.17;3.27;;;;;;;-1.96;100.00;94160.13;5028807;28;20065;-73
2021/11/28 01:00:19;;;;;;;5.90;2.97;;;;;;;-1.97;100.00;94148.22;5021730;28;20495;-73
2021/11/28 01:02:46;;;;;;;5.77;3.00;;;;;;;-1.98;100.00;94149.13;5017175;28;20048;-73
2021/11/28 01:05:13;;;;;;;7.43;3.80;;;;;;;-1.95;100.00;94159.19;5017973;28;20448;-74
2021/11/28 01:07:38;;;;;;;10.17;4.93;;;;;;;-2.01;100.00;94151.97;5007231;28;20484;-73
2021/11/28 01:10:08;;;;;;;11.27;5.87;;;;;;;-1.95;100.00;94156.59;5035839;28;20375;-73
2021/11/28 01:12:34;;;;;;;10.63;4.73;;;;;;;-1.98;100.00;94155.13;5017935;28;20391;-73
2021/11/28 01:15:00;;;;;;;10.20;5.30;;;;;;;-2.09;100.00;94162.16;5018555;28;21321;-75
2021/11/28 01:17:26;;;;;;;10.73;4.57;;;;;;;-2.14;100.00;94158.22;5023043;28;20444;-74
2021/11/28 01:19:52;;;;;;;10.30;6.37;;;;;;;-2.21;100.00;94151.97;5017744;28;20563;-73
2021/11/28 01:22:18;;;;;;;10.53;5.33;;;;;;;-2.22;100.00;94157.25;5037875;28;20527;-74
2021/11/28 01:24:44;;;;;;;8.80;5.23;;;;;;;-2.18;100.00;94156.03;5023735;28;20049;-75
2021/11/28 01:27:14;;;;;;;8.73;4.50;;;;;;;-2.14;100.00;94158.22;5020616;28;21052;-74
2021/11/28 01:29:41;;;;;;;10.87;4.90;;;;;;;-2.07;100.00;94160.28;5028756;28;20515;-74
2021/11/28 01:32:07;;;;;;;10.87;6.03;;;;;;;-2.04;100.00;94162.59;5037998;28;20456;-73
2021/11/28 01:34:33;;;;;;;11.83;5.50;;;;;;;-2.01;100.00;94172.59;5028211;28;20456;-73
2021/11/28 01:37:00;;;;;;;16.80;7.33;;;;;;;-1.93;100.00;94170.19;5027912;28;20754;-73
2021/11/28 01:39:26;;;;;;;10.40;4.57;;;;;;;-1.90;100.00;94175.06;5027475;28;20043;-73
2021/11/28 01:41:53;;;;;;;7.80;3.80;;;;;;;-1.87;100.00;94167.06;5034456;28;20456;-73
2021/11/28 01:44:19;;;;;;;7.30;3.40;;;;;;;-1.81;100.00;94181.16;5032956;28;20837;-73
2021/11/28 01:46:45;;;;;;;26.47;12.93;;;;;;;-1.75;100.00;94188.34;5025396;28;20449;-73
2021/11/28 01:49:15;;;;;;;11.33;5.03;;;;;;;-1.70;100.00;94192.16;5007399;28;20456;-73
2021/11/28 01:51:41;;;;;;;8.53;3.60;;;;;;;-1.68;100.00;94205.72;5029983;28;20997;-73
2021/11/28 01:54:12;;;;;;;11.27;3.80;;;;;;;-1.68;100.00;94204.88;5034222;28;20463;-74
2021/11/28 01:56:40;;;;;;;8.07;3.47;;;;;;;-1.61;100.00;94200.84;5019297;28;20087;-74
2021/11/28 01:59:06;;;;;;;7.47;3.47;;;;;;;-1.59;100.00;94192.97;5007626;28;20490;-73
2021/11/28 02:01:33;;;;;;;10.77;3.87;;;;;;;-1.58;100.00;94181.72;5010162;28;20465;-75
2021/11/28 02:04:02;;;;;;;7.13;2.93;;;;;;;-1.58;100.00;94176.56;5024428;28;20460;-74
2021/11/28 02:06:28;;;;;;;9.93;3.73;;;;;;;-1.56;100.00;94172.09;5028006;28;20464;-73
2021/11/28 02:08:55;;;;;;;11.20;5.47;;;;;;;-1.57;100.00;94175.63;5039571;28;20459;-73
2021/11/28 02:11:21;;;;;;;9.60;4.40;;;;;;;-1.61;100.00;94169.94;5006294;28;20554;-73
2021/11/28 02:13:48;;;;;;;7.80;3.93;;;;;;;-1.59;100.00;94174.94;5005352;28;21100;-73
2021/11/28 02:16:15;;;;;;;8.30;3.70;;;;;;;-1.59;100.00;94175.75;5006066;28;20523;-76
2021/11/28 02:18:42;;;;;;;7.90;3.30;;;;;;;-1.61;100.00;94179.41;5023001;28;20459;-73
2021/11/28 02:21:10;;;;;;;8.70;3.73;;;;;;;-1.63;100.00;94187.28;5033374;28;20463;-74
2021/11/28 02:23:37;;;;;;;7.80;3.87;;;;;;;-1.61;100.00;94190.53;5021231;28;20459;-73
2021/11/28 02:26:09;;;;;;;6.57;3.23;;;;;;;-1.57;100.00;94188.50;5015690;28;21250;-73
2021/11/28 02:28:38;;;;;;;7.90;3.20;;;;;;;-1.51;100.00;94185.38;5018645;28;20440;-73
2021/11/28 02:31:04;;;;;;;10.60;3.47;;;;;;;-1.51;100.00;94186.19;5027541;28;20451;-73
2021/11/28 02:33:30;;;;;;;7.07;3.40;;;;;;;-1.49;100.00;94186.06;5017026;28;20476;-73
2021/11/28 02:35:57;;;;;;;8.30;3.63;;;;;;;-1.48;100.00;94182.50;5029586;28;20452;-73
2021/11/28 02:38:24;;;;;;;6.77;2.90;;;;;;;-1.45;100.00;94184.81;5038563;28;20460;-73
2021/11/28 02:40:50;;;;;;;11.17;4.60;;;;;;;-1.42;100.00;94181.97;5034236;28;21238;-73
2021/11/28 02:43:19;;;;;;;10.47;4.53;;;;;;;-1.42;100.00;94179.41;5031139;28;20472;-73
2021/11/28 02:45:45;;;;;;;7.77;4.10;;;;;;;-1.47;100.00;94186.75;5027694;28;20555;-74
2021/11/28 02:48:14;;;;;;;8.10;3.87;;;;;;;-1.53;100.00;94179.53;5024635;28;20501;-73
2021/11/28 02:50:42;;;;;;;8.30;4.13;;;;;;;-1.54;100.00;94178.75;5025769;28;20036;-74
2021/11/28 02:53:09;;;;;;;7.10;3.50;;;;;;;-1.47;100.00;94171.28;5026222;28;20478;-73
2021/11/28 02:55:42;;;;;;;6.27;2.70;;;;;;;-1.49;100.00;94171.38;5016386;28;20464;-74
2021/11/28 02:58:10;;;;;;;7.22;3.10;;;;;;;-1.45;100.00;94164.19;5017437;28;20486;-73
2021/11/28 03:00:41;;;;;;;7.43;3.07;;;;;;;-1.45;100.00;94164.19;5005033;28;20026;-73
2021/11/28 03:03:08;;;;;;;6.20;2.53;;;;;;;-1.45;100.00;94154.69;5014069;28;20468;-74
2021/11/28 03:05:34;;;;;;;5.93;3.07;;;;;;;-1.47;100.00;94160.97;4997158;28;20620;-74
2021/11/28 03:08:00;;;;;;;6.43;3.40;;;;;;;-1.49;100.00;94157.69;5034889;28;20530;-73
2021/11/28 03:10:39;;;;;;;5.87;2.90;;;;;;;-1.47;100.00;94158.38;5009264;28;20113;-73
2021/11/28 03:13:27;;;;;;;5.37;2.77;;;;;;;-1.44;100.00;94161.50;5032860;28;20618;-73
2021/11/28 03:15:56;;;;;;;5.60;2.57;;;;;;;-1.37;100.00;94163.53;5021288;28;20452;-73
2021/11/28 03:18:25;;;;;;;8.27;2.97;;;;;;;-1.38;100.00;94161.88;5010472;28;20454;-73
2021/11/28 03:20:53;;;;;;;6.27;2.57;;;;;;;-1.37;100.00;94161.75;5008421;28;20455;-73
2021/11/28 03:23:21;;;;;;;9.80;3.50;;;;;;;-1.35;100.00;94159.84;5026167;28;20460;-73
2021/11/28 03:25:47;;;;;;;7.70;3.10;;;;;;;-1.33;100.00;94159.72;5006156;28;20452;-74
2021/11/28 03:28:18;;;;;;;10.30;4.30;;;;;;;-1.29;100.00;94158.50;5011359;28;20559;-74
2021/11/28 03:30:47;;;;;;;7.17;2.70;;;;;;;-1.26;100.00;94158.22;5027415;28;20658;-73
2021/11/28 03:33:32;;;;;;;7.60;2.70;;;;;;;-1.25;100.00;94155.47;5020854;28;20483;-73
2021/11/28 03:36:11;;;;;;;9.63;3.27;;;;;;;-1.22;100.00;94157.78;5010878;28;20498;-73
2021/11/28 03:38:40;;;;;;;9.40;3.60;;;;;;;-1.21;100.00;94145.69;5026209;28;20489;-73
2021/11/28 03:41:07;;;;;;;9.10;3.83;;;;;;;-1.20;100.00;94155.09;5024645;28;20448;-73
2021/11/28 03:43:34;;;;;;;9.67;3.93;;;;;;;-1.22;100.00;94144.88;5024809;28;20462;-73
2021/11/28 03:46:00;;;;;;;12.30;4.90;;;;;;;-1.21;100.00;94143.97;5018246;28;20537;-73
2021/11/28 03:48:27;;;;;;;15.47;5.80;;;;;;;-1.17;100.00;94151.38;5027921;28;20539;-73
2021/11/28 03:50:56;;;;;;;11.97;4.80;;;;;;;-1.20;100.00;94148.16;5029102;28;20390;-74
2021/11/28 03:53:22;;;;;;;14.63;5.87;;;;;;;-1.22;100.00;94146.66;5018769;28;21267;-74
2021/11/28 03:55:49;;;;;;;15.63;6.03;;;;;;;-1.25;100.00;94139.19;5033235;28;20446;-73
2021/11/28 03:58:15;;;;;;;15.53;5.17;;;;;;;-1.27;100.00;94146.28;5028762;28;21080;-73
2021/11/28 04:00:40;;;;;;;8.00;4.33;;;;;;;-1.36;100.00;94145.34;5001092;28;20445;-74
2021/11/28 04:03:11;;;;;;;9.13;4.50;;;;;;;-1.39;100.00;94145.59;5027190;28;20025;-73
2021/11/28 04:05:39;;;;;;;10.10;4.53;;;;;;;-1.38;100.00;94144.66;5019874;28;21242;-74
2021/11/28 04:08:06;;;;;;;12.50;6.10;;;;;;;-1.39;100.00;94142.22;5036426;28;20502;-73
2021/11/28 04:10:32;;;;;;;14.70;7.23;;;;;;;-1.44;100.00;94137.50;5029479;28;21102;-74
2021/11/28 04:12:58;;;;;;;14.00;5.83;;;;;;;-1.39;100.00;94137.88;5029159;28;20515;-73
2021/11/28 04:15:24;;;;;;;8.57;3.97;;;;;;;-1.40;100.00;94138.84;5026884;28;20460;-74
2021/11/28 04:18:09;;;;;;;7.33;3.43;;;;;;;-1.32;100.00;94132.97;5029257;28;20460;-73
2021/11/28 04:20:36;;;;;;;11.20;5.03;;;;;;;-1.29;100.00;94127.53;5014492;28;20948;-73
2021/11/28 04:23:02;;;;;;;8.23;3.30;;;;;;;-1.26;100.00;94129.84;5024108;28;20502;-74
2021/11/28 04:25:28;;;;;;;7.10;3.43;;;;;;;-1.27;100.00;94135.97;5029552;28;20034;-73
2021/11/28 04:27:54;;;;;;;6.87;3.17;;;;;;;-1.29;100.00;94125.78;5004657;28;21016;-73
2021/11/28 04:30:21;;;;;;;9.87;4.30;;;;;;;-1.35;100.00;94123.75;5031809;28;20455;-73
2021/11/28 04:32:47;;;;;;;9.53;4.17;;;;;;;-1.34;100.00;94129.72;5005431;28;20486;-73
2021/11/28 04:35:13;;;;;;;9.33;4.80;;;;;;;-1.32;100.00;94127.81;5007738;28;20084;-74
2021/11/28 04:37:39;;;;;;;8.23;4.17;;;;;;;-1.36;100.00;94137.59;5028307;28;20509;-73
2021/11/28 04:40:08;;;;;;;9.90;4.13;;;;;;;-1.43;100.00;94128.78;5026166;28;20493;-73
2021/11/28 04:42:37;;;;;;;10.77;4.53;;;;;;;-1.40;100.00;94125.13;5003052;28;20022;-74
2021/11/28 04:45:04;;;;;;;10.20;4.10;;;;;;;-1.37;100.00;94141.13;5031263;28;21000;-73
2021/11/28 04:47:30;;;;;;;7.30;3.80;;;;;;;-1.36;100.00;94126.47;5027275;28;20013;-73
2021/11/28 04:50:08;;;;;;;9.73;4.67;;;;;;;-1.34;100.00;94133.13;5004593;28;21077;-74
2021/11/28 04:52:35;;;;;;;6.47;3.13;;;;;;;-1.41;100.00;94132.03;5029393;28;20486;-73
2021/11/28 04:55:03;;;;;;;9.10;3.93;;;;;;;-1.39;100.00;94134.47;5032262;28;20457;-73
2021/11/28 04:57:30;;;;;;;6.50;3.27;;;;;;;-1.33;100.00;94132.16;5037850;28;20951;-73
2021/11/28 04:59:55;;;;;;;7.83;3.70;;;;;;;-1.29;100.00;94132.69;5042117;28;20509;-74
2021/11/28 05:02:21;;;;;;;8.90;3.80;;;;;;;-1.34;100.00;94130.56;5034996;28;20126;-74
2021/11/28 05:04:47;;;;;;;9.33;4.50;;;;;;;-1.32;100.00;94131.22;5026230;28;20072;-74
2021/11/28 05:07:31;;;;;;;;;;;;;;;-1.26;100.00;94132.44;5030219;28;20044;-73
2021/11/28 05:09:58;;;;;;;7.60;3.63;;;;;;;-1.25;100.00;94127.13;5014922;28;20750;-73
2021/11/28 05:12:28;;;;;;;7.67;3.53;;;;;;;-1.24;100.00;94126.19;5009180;28;21228;-74
2021/11/28 05:14:56;;;;;;;6.37;3.33;;;;;;;-1.23;100.00;94129.56;5024903;28;20457;-73
2021/11/28 05:17:23;;;;;;;7.03;3.60;;;;;;;-1.22;100.00;94132.00;4999098;28;20807;-73
2021/11/28 05:19:54;;;;;;;7.00;3.33;;;;;;;-1.26;100.00;94132.44;5028805;28;20440;-73
2021/11/28 05:22:20;;;;;;;11.57;3.70;;;;;;;-1.29;100.00;94138.66;5025070;28;20459;-73
2021/11/28 05:24:47;;;;;;;9.13;3.07;;;;;;;-1.25;100.00;94134.84;5013065;28;20491;-73
2021/11/28 05:27:14;;;;;;;6.80;3.30;;;;;;;-1.20;100.00;94132.69;5035926;28;20028;-73
2021/11/28 05:29:40;;;;;;;6.83;3.03;;;;;;;-1.25;100.00;94134.84;5019476;28;20451;-73
2021/11/28 05:32:06;;;;;;;5.93;3.17;;;;;;;-1.26;100.00;94143.56;5033265;28;20465;-73
2021/11/28 05:35:11;;;;;;;;;;;;;;;-1.31;100.00;94143.16;5021978;28;20038;-73
2021/11/28 05:37:56;;;;;;;6.73;3.60;;;;;;;-1.32;100.00;94149.25;5046397;28;19920;-73
2021/11/28 05:40:25;;;;;;;8.43;4.10;;;;;;;-1.30;100.00;94151.72;5037491;28;20472;-73
2021/11/28 05:42:53;;;;;;;8.53;4.40;;;;;;;-1.27;100.00;94162.56;5038261;28;20463;-73
2021/11/28 05:45:23;;;;;;;11.37;4.37;;;;;;;-1.28;100.00;94160.91;5013760;28;20648;-73
2021/11/28 05:48:07;;;;;;;7.93;4.17;;;;;;;-1.21;100.00;94159.44;5029468;28;20424;-73
2021/11/28 05:50:33;;;;;;;6.97;3.20;;;;;;;-1.25;100.00;94158.06;5035386;28;20502;-73
2021/11/28 05:53:00;;;;;;;7.23;2.80;;;;;;;-1.22;100.00;94155.22;5039298;28;20109;-74
2021/11/28 05:55:26;;;;;;;9.57;3.73;;;;;;;-1.16;100.00;94163.34;5038339;28;20053;-71
2021/11/28 05:57:55;;;;;;;8.37;3.60;;;;;;;-1.19;100.00;94167.03;5021641;28;20836;-74
2021/11/28 06:00:22;;;;;;;6.77;2.93;;;;;;;-1.15;100.00;94167.56;5038341;28;20455;-72
2021/11/28 06:02:53;;;;;;;9.20;3.03;;;;;;;-1.12;100.00;94175.00;5028922;28;20494;-72
2021/11/28 06:05:41;;;;;;;10.03;3.30;;;;;;;-1.08;100.00;94171.19;5037289;28;20514;-74
2021/11/28 06:08:25;;;;;;;7.23;3.53;;;;;;;-1.04;100.00;94177.69;5035389;28;20862;-72
2021/11/28 06:10:55;;;;;;;8.33;3.80;;;;;;;-1.05;100.00;94183.81;5019428;28;20464;-72
2021/11/28 06:13:21;;;;;;;6.20;2.67;;;;;;;-1.07;100.00;94183.16;5010869;28;20483;-73
2021/11/28 06:16:07;;;;;;;7.00;3.27;;;;;;;-1.08;100.00;94179.75;5024049;28;20541;-73
2021/11/28 06:19:08;;;;;;;6.97;3.70;;;;;;;-1.05;100.00;94182.06;5034551;28;21412;-73
2021/11/28 06:21:47;;;;;;;8.47;3.57;;;;;;;-1.01;100.00;94177.41;5040518;28;20526;-72
2021/11/28 06:24:16;;;;;;;9.10;4.57;;;;;;;-1.00;100.00;94179.06;5006800;28;20984;-73
2021/11/28 06:26:47;;;;;;;7.83;4.03;;;;;;;-0.95;100.00;94187.19;5039031;28;20548;-73
2021/11/28 06:29:13;;;;;;;10.77;4.30;;;;;;;-0.95;100.00;94180.25;5035840;28;20526;-72
2021/11/28 06:31:42;;;;;;;9.87;5.33;;;;;;;-0.96;100.00;94183.81;5011220;28;20488;-72
2021/11/28 06:34:27;;;;;;;10.90;5.33;;;;;;;-0.99;100.00;94186.66;5029803;28;20458;-73
2021/11/28 06:37:11;;;;;;;9.20;5.13;;;;;;;-1.01;100.00;94183.38;5033073;28;20597;-73
2021/11/28 06:39:56;;;;;;;8.57;4.53;;;;;;;-1.00;100.00;94190.19;5027274;28;20519;-72
2021/11/28 06:42:39;;;;;;;12.05;5.65;;;;;;;-0.99;100.00;94183.28;5028493;28;21072;-73
2021/11/28 06:45:06;;;;;;;15.30;8.80;;;;;;;-0.97;100.00;94183.97;5016298;28;20107;-73
2021/11/28 06:47:33;;;;;;;15.93;8.60;;;;;;;-0.92;100.00;94188.69;5013132;28;21027;-72
2021/11/28 06:49:59;;;;;;;14.73;9.37;;;;;;;-0.95;100.00;94188.00;5010790;28;20466;-72
2021/11/28 06:52:58;;;;;;;15.20;8.23;;;;;;;-0.91;100.00;94190.31;5031659;28;20496;-73
2021/11/28 06:55:23;;;;;;;12.27;7.40;;;;;;;-0.93;100.00;94190.47;5030281;28;20475;-72
2021/11/28 06:58:02;;;;;;;30.83;17.63;;;;;;;-0.92;100.00;94188.69;5038417;28;20391;-72
2021/11/28 07:00:28;;;;;;;12.53;7.27;;;;;;;-0.91;100.00;94191.13;5028235;28;20471;-72
2021/11/28 07:02:57;;;;;;;8.60;5.40;;;;;;;-0.92;100.00;94194.66;5012166;28;20579;-73
2021/11/28 07:05:45;;;;;;;10.70;5.23;;;;;;;-0.91;100.00;94198.03;5026918;28;20033;-72
2021/11/28 07:08:11;;;;;;;10.83;5.73;;;;;;;-0.88;100.00;94192.59;5011169;28;21110;-73
2021/11/28 07:10:39;;;;;;;13.10;7.17;;;;;;;-0.87;100.00;94195.06;5012063;28;20577;-73
2021/11/28 07:13:12;;;;;;;12.50;6.93;;;;;;;-0.89;100.00;94202.13;5025968;28;20089;-73
2021/11/28 07:15:39;;;;;;;9.73;4.90;;;;;;;-0.92;100.00;94199.00;5016551;28;21024;-74
2021/11/28 07:18:08;;;;;;;9.77;4.77;;;;;;;-0.93;100.00;94205.94;5011282;28;20469;-73
2021/11/28 07:21:11;;;;;;;11.47;4.40;;;;;;;-0.93;100.00;94205.94;5021824;28;21005;-73
2021/11/28 07:23:40;;;;;;;8.27;4.03;;;;;;;-0.87;100.00;94207.13;5017970;28;20472;-73
2021/11/28 07:26:07;;;;;;;9.20;4.40;;;;;;;-0.85;100.00;94218.94;5025143;28;20475;-74
2021/11/28 07:28:41;;;;;;;7.93;4.73;;;;;;;-0.82;100.00;94207.53;5003769;28;20025;-73
2021/11/28 07:31:07;;;;;;;12.20;7.37;;;;;;;-0.81;100.00;94197.06;5020491;28;20469;-73
2021/11/28 07:33:52;;;;;;;11.30;6.17;;;;;;;-0.78;100.00;94201.94;5027112;28;20036;-73
2021/11/28 07:36:37;;;;;;;12.83;5.77;;;;;;;-0.77;100.00;94203.59;5024690;28;20520;-74
2021/11/28 07:39:07;;;;;;;13.33;7.80;;;;;;;-0.78;100.00;94209.69;5016630;28;20482;-73
2021/11/28 07:41:34;;;;;;;12.53;6.70;;;;;;;-0.84;100.00;94205.09;5005286;28;20465;-73
2021/11/28 07:44:18;;;;;;;11.37;6.30;;;;;;;-0.87;100.00;94205.38;5018730;28;20502;-73
2021/11/28 07:47:08;;;;;;;10.80;6.63;;;;;;;-0.86;100.00;94212.16;5023731;28;20483;-73
2021/11/28 07:49:57;;;;;;;13.67;8.00;;;;;;;-0.87;100.00;94210.53;5008692;28;20827;-73
2021/11/28 07:52:24;;;;;;;10.37;6.50;;;;;;;-0.84;100.00;94204.28;5029902;28;21010;-73
2021/11/28 07:54:49;;;;;;;11.03;6.37;;;;;;;-0.89;100.00;94206.47;5007812;28;20471;-73
2021/11/28 07:57:36;;;;;;;9.80;5.90;;;;;;;-0.87;100.00;94205.38;5022619;28;20135;-73
2021/11/28 08:00:21;;;;;;;15.17;8.93;;;;;;;-0.85;100.00;94207.81;5025276;28;20420;-73
2021/11/28 08:02:48;;;;;;;13.63;8.73;;;;;;;-0.77;100.00;94210.50;5035886;28;20468;-73
2021/11/28 08:05:32;;;;;;;13.97;10.13;;;;;;;-0.73;100.00;94206.69;5033253;28;20435;-73
2021/11/28 08:08:36;;;;;;;19.83;12.52;;;;;;;-0.69;100.00;94209.81;5032124;28;20479;-73
2021/11/28 08:11:27;;;;;;;19.60;13.60;;;;;;;-0.66;100.00;94212.13;5045604;28;20494;-73
2021/11/28 08:13:53;;;;;;;24.17;17.00;;;;;;;-0.61;100.00;94209.91;5020386;28;21002;-73
2021/11/28 08:16:19;;;;;;;28.50;20.27;;;;;;;-0.55;100.00;94204.19;5027494;28;20470;-73
2021/11/28 08:18:45;;;;;;;22.83;17.63;;;;;;;-0.50;100.00;94209.75;5019986;28;20469;-74
2021/11/28 08:21:10;;;;;;;16.60;11.73;;;;;;;-0.50;100.00;94212.34;5007903;28;20475;-73
2021/11/28 08:23:37;;;;;;;17.20;11.37;;;;;;;-0.49;100.00;94209.59;5026180;28;20085;-74
2021/11/28 08:26:03;;;;;;;15.47;10.37;;;;;;;-0.50;100.00;94218.31;5023484;28;20553;-73
2021/11/28 08:28:30;;;;;;;17.30;10.93;;;;;;;-0.54;100.00;94211.81;5003930;28;20456;-75
2021/11/28 08:30:56;;;;;;;14.63;10.57;;;;;;;-0.55;100.00;94222.25;5011796;28;20572;-74
2021/11/28 08:33:40;;;;;;;13.80;10.23;;;;;;;-0.47;100.00;94219.78;5027614;28;20519;-75
2021/11/28 08:36:11;;;;;;;15.97;10.97;;;;;;;-0.38;100.00;94218.94;5028554;28;20431;-75
2021/11/28 08:38:42;;;;;;;15.17;10.70;;;;;;;-0.32;100.00;94210.63;5037683;28;20447;-74
2021/11/28 08:41:11;;;;;;;13.33;9.63;;;;;;;-0.20;100.00;94213.00;5010121;28;20033;-75
2021/11/28 08:43:37;;;;;;;13.27;8.57;;;;;;;-0.20;100.00;94211.25;5026723;28;21212;-74
2021/11/28 08:46:03;;;;;;;13.53;9.03;;;;;;;-0.26;100.00;94224.75;5020231;28;20465;-74
2021/11/28 08:48:29;;;;;;;16.00;9.97;;;;;;;-0.24;100.00;94228.78;5020010;28;20448;-74
2021/11/28 08:50:55;;;;;;;18.80;13.53;;;;;;;-0.14;100.00;94227.94;5034015;28;20083;-74
2021/11/28 08:53:20;;;;;;;26.23;15.67;;;;;;;-0.03;100.00;94218.25;5013751;28;20025;-74
2021/11/28 08:55:46;;;;;;;19.50;11.07;;;;;;;0.06;100.00;94219.13;5030460;28;20029;-74
2021/11/28 08:58:12;;;;;;;18.87;10.90;;;;;;;0.13;100.00;94222.75;5026692;28;20037;-74
2021/11/28 09:00:38;;;;;;;18.97;11.97;;;;;;;0.29;100.00;94221.31;5037073;28;20033;-74
2021/11/28 09:03:04;;;;;;;14.87;8.70;;;;;;;0.29;100.00;94219.53;5031588;28;20032;-74
2021/11/28 09:05:30;;;;;;;13.43;6.97;;;;;;;0.22;100.00;94234.00;5025908;28;20460;-74
2021/11/28 09:07:57;;;;;;;10.50;7.23;;;;;;;0.22;100.00;94237.41;5030601;28;20078;-75
2021/11/28 09:10:23;;;;;;;14.30;6.77;;;;;;;0.19;100.00;94234.28;5027736;28;20044;-75
2021/11/28 09:12:49;;;;;;;11.70;6.73;;;;;;;0.21;100.00;94230.59;5022285;28;20452;-74
2021/11/28 09:15:16;;;;;;;14.10;8.13;;;;;;;0.23;100.00;94243.38;5007546;28;20445;-74
2021/11/28 09:17:49;;;;;;;13.90;7.67;;;;;;;0.28;100.00;94237.78;5004322;28;20480;-74
2021/11/28 09:20:19;;;;;;;13.90;7.50;;;;;;;0.26;100.00;94237.09;5044694;28;20846;-74
2021/11/28 09:25:16;;;;;;;14.33;8.10;;;;;;;0.33;100.00;94236.38;5036178;28;20432;-74
2021/11/28 09:27:47;;;;;;;15.47;9.17;;;;;;;0.39;100.00;94229.81;5031820;28;20472;-74
2021/11/28 09:30:17;;;;;;;16.43;6.10;;;;;;;0.46;100.00;94225.69;5021780;28;20451;-75
2021/11/28 09:32:44;;;;;;;10.00;5.03;;;;;;;0.45;100.00;94224.06;5025276;28;20472;-74
2021/11/28 09:35:10;;;;;;;9.03;4.17;;;;;;;0.41;100.00;94228.72;5022252;28;20551;-74
2021/11/28 09:37:39;;;;;;;9.27;4.37;;;;;;;0.58;100.00;94226.28;5026678;28;20452;-75
2021/11/28 09:40:05;;;;;;;8.53;3.40;;;;;;;0.69;100.00;94233.81;5023145;28;20456;-72
2021/11/28 09:42:43;;;;;;;7.23;3.90;;;;;;;0.54;100.00;94228.34;5026731;28;20444;-73
2021/11/28 09:45:09;;;;;;;8.17;3.80;;;;;;;0.50;100.00;94229.59;5021728;28;20464;-73
2021/11/28 09:47:36;;;;;;;9.63;4.10;;;;;;;0.70;100.00;94228.50;5027759;28;20448;-74
2021/11/28 09:50:08;;;;;;;8.57;3.67;;;;;;;0.74;100.00;94223.84;5004257;28;20132;-74
2021/11/28 09:52:35;;;;;;;9.77;4.03;;;;;;;0.66;100.00;94227.16;5010645;28;20480;-74
2021/11/28 09:55:06;;;;;;;16.67;5.53;;;;;;;0.72;100.00;94224.94;5028892;28;20844;-73
2021/11/28 09:57:33;;;;;;;9.87;4.87;;;;;;;0.77;100.00;94218.38;5022334;28;20453;-74
2021/11/28 10:00:00;;;;;;;10.27;4.70;;;;;;;0.85;100.00;94215.03;5023662;28;21146;-74
2021/11/28 10:02:27;;;;;;;14.17;6.20;;;;;;;1.02;100.00;94215.97;5004840;28;20022;-74
2021/11/28 10:04:54;;;;;;;31.27;13.03;;;;;;;1.06;100.00;94218.09;5009892;28;20587;-74
2021/11/28 10:07:21;;;;;;;63.63;26.67;;;;;;;1.10;100.00;94209.06;5022540;28;20495;-74
2021/11/28 10:09:47;;;;;;;27.37;13.90;;;;;;;1.16;100.00;94216.22;5023601;28;20809;-74
2021/11/28 10:12:22;;;;;;;12.33;7.13;;;;;;;1.15;100.00;94209.44;5018855;28;20097;-74
2021/11/28 10:14:52;;;;;;;12.40;6.23;;;;;;;1.05;100.00;94211.31;5011073;28;20038;-74
2021/11/28 10:17:19;;;;;;;9.73;5.13;;;;;;;1.18;100.00;94203.97;5016566;28;20104;-74
2021/11/28 10:19:46;;;;;;;7.30;3.77;;;;;;;1.13;100.00;94206.16;5024257;28;20422;-72
2021/11/28 10:22:12;;;;;;;8.07;3.80;;;;;;;1.01;100.00;94210.00;5017755;28;20460;-72
2021/11/28 10:24:51;;;;;;;8.23;4.20;;;;;;;1.14;100.00;94199.22;5025433;28;20657;-72
2021/11/28 10:27:17;;;;;;;10.63;6.13;;;;;;;1.00;100.00;94213.53;5022823;28;20487;-72
2021/11/28 10:29:42;;;;;;;11.43;6.60;;;;;;;1.14;100.00;94202.63;5021076;28;20512;-73
2021/11/28 10:32:11;;;;;;;9.03;5.00;;;;;;;1.26;100.00;94197.19;5029741;28;20041;-73
2021/11/28 10:34:43;;;;;;;8.67;4.87;;;;;;;1.24;100.00;94201.72;5023001;28;20026;-73
2021/11/28 10:37:11;;;;;;;12.00;4.60;;;;;;;1.19;100.00;94197.00;5026180;28;20133;-72
2021/11/28 10:39:41;;;;;;;8.93;3.67;;;;;;;1.10;100.00;94203.88;5005346;28;20032;-72
2021/11/28 10:42:10;;;;;;;10.53;5.00;;;;;;;1.07;100.00;94188.66;5011154;28;20418;-72
2021/11/28 10:44:36;;;;;;;11.53;4.73;;;;;;;1.20;100.00;94192.63;5026353;28;20040;-74
2021/11/28 10:47:12;;;;;;;11.23;5.13;;;;;;;1.29;100.00;94196.91;5028830;28;20040;-74
2021/11/28 10:49:38;;;;;;;12.13;5.10;;;;;;;1.18;100.00;94192.78;5013677;28;20116;-73
2021/11/28 10:52:22;;;;;;;11.73;4.87;;;;;;;1.21;100.00;94196.84;5028826;28;20098;-74
2021/11/28 10:54:48;;;;;;;10.43;4.93;;;;;;;1.19;100.00;94191.81;5030732;28;20106;-74
2021/11/28 10:57:16;;;;;;;8.70;5.13;;;;;;;1.24;100.00;94193.94;5035341;28;20033;-74
2021/11/28 10:59:59;;;;;;;9.20;4.50;;;;;;;1.23;100.00;94197.50;5034487;28;20056;-74
2021/11/28 11:02:37;;;;;;;9.65;4.28;;;;;;;1.18;100.00;94200.56;5021640;28;20092;-73
2021/11/28 11:05:06;;;;;;;11.57;4.17;;;;;;;1.11;100.00;94200.34;5028943;28;20486;-74
2021/11/28 11:07:50;;;;;;;6.97;3.73;;;;;;;1.17;100.00;94204.94;5028940;28;20025;-74
2021/11/28 11:10:26;;;;;;;7.87;4.33;;;;;;;1.11;100.00;94209.91;5019373;28;20025;-73
2021/11/28 11:12:53;;;;;;;9.03;4.60;;;;;;;1.09;100.00;94204.06;5018977;28;20088;-73
2021/11/28 11:15:32;;;;;;;10.20;5.10;;;;;;;1.16;100.00;94205.06;5020579;28;20029;-73
2021/11/28 11:18:00;;;;;;;10.53;4.80;;;;;;;1.25;100.00;94201.56;5034161;28;20117;-73
2021/11/28 11:20:28;;;;;;;15.73;5.67;;;;;;;1.21;100.00;94195.06;5026019;28;20033;-74
2021/11/28 11:22:54;;;;;;;6.97;3.20;;;;;;;1.29;100.00;94200.28;5035883;28;20107;-73
2021/11/28 11:25:29;;;;;;;6.70;3.60;;;;;;;1.32;100.00;94205.16;5013989;28;20739;-73
2021/11/28 11:28:07;;;;;;;9.87;4.73;;;;;;;1.29;100.00;94207.25;5030508;28;20030;-73
2021/11/28 11:30:33;;;;;;;9.97;5.07;;;;;;;1.30;100.00;94206.28;5015703;28;20059;-73
2021/11/28 11:33:04;;;;;;;6.03;2.87;;;;;;;1.34;100.00;94205.00;5012921;28;20022;-73
2021/11/28 11:35:41;;;;;;;7.67;3.67;;;;;;;1.37;100.00;94209.88;5020983;28;20499;-73
2021/11/28 11:38:10;;;;;;;7.80;3.87;;;;;;;1.40;100.00;94209.56;5038411;28;20468;-73
2021/11/28 11:40:38;;;;;;;7.60;3.60;;;;;;;1.37;100.00;94205.50;5006508;28;20034;-75
2021/11/28 11:43:04;;;;;;;6.10;3.20;;;;;;;1.39;100.00;94208.78;5001585;28;20116;-74
2021/11/28 11:45:35;;;;;;;6.17;3.07;;;;;;;1.51;100.00;94209.34;5031789;28;20037;-74